Torrington, WY

8:48 PM MDT on April 25, 2017 (GMT -0600)
Torrington Municipal | | Change Station

Elev 4206 ft 42.06 °N, 104.15 °W | Updated 46 minutes ago

Overcast
Overcast
32 °F
Feels Like 22 °F
N
14
Wind Variable Wind from North

Today
High -- | Low -- °F
--% Chance of Precip.
Yesterday
High -- | Low -- °F
Precip. -- in
Pressure 29.82 in
Visibility 10.0 miles
Clouds Mostly Cloudy 1500 ft
Overcast 2200 ft
Windchill 22 °F
Dew Point 28 °F
Humidity 85%
Rainfall 0.03 in
Snow Depth Not available.
6:00 AM 7:49 PM
Waning Crescent, 0% visible
SPECI KTOR 260202Z AUTO 01012KT 10SM BKN015 OVC022 00/M02 A2982 RMK AO2 T00001022
Pressure 29.82 in
Visibility 10.0 miles
Clouds Mostly Cloudy 1500 ft
Overcast 2200 ft
Windchill 22 °F
Dew Point 28 °F
Humidity 85%
Rainfall 0.03 in
Snow Depth Not available.
6:00 AM 7:49 PM
Waning Crescent, 0% visible
SPECI KTOR 260202Z AUTO 01012KT 10SM BKN015 OVC022 00/M02 A2982 RMK AO2 T00001022

Get Severe Weather Alerts

Thanks for signing up!

Be on the lookout for a verification email in your inbox.

You'll start receiving the daily forecast at 8 AM.

×

10-Day Weather Forecast

Almanac

Astronomy

Apr. 25, 2017 Rise Set
Actual Time
Civil Twilight
Nautical Twilight
Astronomical Twilight
Moon
Length of Visible Light
Length of Day
Tomorrow will be .
, % of the Moon is Illuminated

Today's Extremes

State Highs State Lows

Community

WunderPhotos

WunderBlog® & News

Nearby

Air Quality

  Air Quality AQ Index Pollutant
Not available.

Snow Depth

Station Depth Elevation

Earthquake Activity

City Distance Mag. Time & Date
Minimum magnitude displayed is 2.5.

Coastal Water Temperatures

Place Temperature

Stations

Nearby Weather Stations

Station Location Temp. Windchill Dew Point Humidity Wind Precip. Elev Updated Type
                   

Watches & Warnings

There are currently no watches in effect.